Terminal Aerodrome Forecast
Issued by NWS

Home | Current Version | Previous Version | Graphics & Text | Print | Product List | Glossary On
Versions: 1 2 3 4 5 6 7 8 9 10 11 12 13 14 15 16 17 18 19 20 21 22 23
000
FTUS43 KMPX 022343
TAFRWF
TAF
KRWF 022343Z 0300/0324 11005KT P6SM SCT150
     FM030300 15004KT 6SM BR SKC
     FM030900 14004KT 4SM BR OVC008
     FM031500 16009KT P6SM SCT015=

USA.gov is the U.S. government's official web portal to all federal, state and local government web resources and services.